createdAt,value
2022-12-18T00:01:27.105Z,74.79
2022-12-18T00:03:56.108Z,74.55
2022-12-18T00:06:26.568Z,74.66
2022-12-18T00:08:55.795Z,74.74
2022-12-18T00:11:27.888Z,73.52
2022-12-18T00:13:58.043Z,73.60
2022-12-18T00:16:27.015Z,73.64
2022-12-18T00:18:59.903Z,75.58
2022-12-18T00:21:30.042Z,74.75
2022-12-18T00:23:58.610Z,74.13
2022-12-18T00:26:28.732Z,74.71
2022-12-18T00:29:01.271Z,75.31
2022-12-18T00:31:31.906Z,74.97
2022-12-18T00:34:00.762Z,75.22
2022-12-18T00:36:30.857Z,75.67
2022-12-18T00:38:59.914Z,75.53
2022-12-18T00:41:47.015Z,75.32
2022-12-18T00:44:16.379Z,74.77
2022-12-18T00:46:44.926Z,76.00
2022-12-18T00:49:21.255Z,75.15
2022-12-18T00:51:49.691Z,74.75
2022-12-18T00:54:18.541Z,74.82
2022-12-18T00:56:49.225Z,75.29
2022-12-18T00:59:18.641Z,75.69
2022-12-18T01:01:47.132Z,74.73
2022-12-18T01:04:15.251Z,75.03
2022-12-18T01:06:46.503Z,74.31
2022-12-18T01:09:14.111Z,74.63
2022-12-18T01:11:41.742Z,74.85
2022-12-18T01:14:09.738Z,74.34
2022-12-18T01:16:38.673Z,74.86
2022-12-18T01:19:06.333Z,74.40
2022-12-18T01:21:34.158Z,73.88
2022-12-18T01:24:05.709Z,74.90
2022-12-18T01:26:33.940Z,74.18
2022-12-18T01:29:01.503Z,73.86
2022-12-18T01:31:32.515Z,73.61
2022-12-18T01:34:04.538Z,73.63
2022-12-18T01:36:37.293Z,73.91
2022-12-18T01:39:12.123Z,74.05
2022-12-18T01:42:02.094Z,73.70
2022-12-18T01:45:09.765Z,73.33
2022-12-18T01:47:48.125Z,72.88
2022-12-18T01:50:30.059Z,73.38
2022-12-18T01:53:17.925Z,73.80
2022-12-18T01:55:57.709Z,74.62
2022-12-18T01:58:50.464Z,73.94
2022-12-18T02:01:18.095Z,73.52
2022-12-18T02:03:46.117Z,73.21
2022-12-18T02:06:32.545Z,73.17
2022-12-18T02:09:11.472Z,73.50
2022-12-18T02:12:21.875Z,73.50
2022-12-18T02:15:20.407Z,73.84
2022-12-18T02:17:56.856Z,73.08
2022-12-18T02:20:28.624Z,74.03
2022-12-18T02:23:07.665Z,74.47
2022-12-18T02:25:48.448Z,73.48
2022-12-18T02:28:20.064Z,73.21
2022-12-18T02:30:52.907Z,74.34
2022-12-18T02:33:26.553Z,73.93
2022-12-18T02:35:57.106Z,73.77
2022-12-18T02:38:26.410Z,73.42
2022-12-18T02:40:56.206Z,73.15
2022-12-18T02:43:23.768Z,73.48
2022-12-18T02:45:57.157Z,73.63
2022-12-18T02:48:36.354Z,73.71
2022-12-18T02:51:15.241Z,73.17
2022-12-18T02:53:46.610Z,73.33
2022-12-18T02:56:22.560Z,73.61
2022-12-18T02:58:53.628Z,74.25
2022-12-18T03:02:18.017Z,73.84
2022-12-18T03:05:12.966Z,73.26
2022-12-18T03:07:50.121Z,73.69
2022-12-18T03:10:22.815Z,73.75
2022-12-18T03:12:59.607Z,73.11
2022-12-18T03:15:36.347Z,72.83
2022-12-18T03:18:15.990Z,71.98
2022-12-18T03:20:47.117Z,71.99
2022-12-18T03:23:37.417Z,72.54
2022-12-18T03:26:10.880Z,72.64
2022-12-18T03:28:52.519Z,71.89
2022-12-18T03:31:23.862Z,72.44
2022-12-18T03:33:55.701Z,72.72
2022-12-18T03:36:32.010Z,72.72
2022-12-18T03:39:00.002Z,72.89
2022-12-18T03:42:00.427Z,73.17
2022-12-18T03:44:46.037Z,73.04
2022-12-18T03:47:34.759Z,73.31
2022-12-18T03:50:23.203Z,73.04
2022-12-18T03:53:10.718Z,71.95
2022-12-18T03:55:41.541Z,71.74
2022-12-18T03:58:14.167Z,72.10
2022-12-18T04:00:55.528Z,71.65
2022-12-18T04:03:26.676Z,71.91
2022-12-18T04:05:57.805Z,71.41
2022-12-18T04:08:26.640Z,71.56
2022-12-18T04:11:03.279Z,72.45
2022-12-18T04:13:36.762Z,72.83
2022-12-18T04:16:08.137Z,72.79
2022-12-18T04:18:36.834Z,73.48
2022-12-18T04:21:04.930Z,73.52
2022-12-18T04:23:34.172Z,72.77
2022-12-18T04:26:02.666Z,72.50
2022-12-18T04:28:47.853Z,72.24
2022-12-18T04:31:16.499Z,73.26
2022-12-18T04:33:44.569Z,73.01
2022-12-18T04:36:13.458Z,73.63
2022-12-18T04:38:41.648Z,74.08
2022-12-18T04:41:16.285Z,73.23
2022-12-18T04:43:46.705Z,72.14
2022-12-18T04:46:14.527Z,72.05
2022-12-18T04:48:42.115Z,71.88
2022-12-18T04:51:09.727Z,72.06
2022-12-18T04:53:37.620Z,71.60
2022-12-18T04:56:16.830Z,72.32
2022-12-18T04:58:45.825Z,71.70
2022-12-18T05:01:16.231Z,71.79
2022-12-18T05:03:44.550Z,71.17
2022-12-18T05:06:12.359Z,70.96
2022-12-18T05:08:39.870Z,72.08
2022-12-18T05:11:09.989Z,72.38
2022-12-18T05:13:39.342Z,72.31
2022-12-18T05:16:07.781Z,71.54
2022-12-18T05:18:35.763Z,71.86
2022-12-18T05:21:03.575Z,71.76
2022-12-18T05:23:31.198Z,72.48
2022-12-18T05:26:01.826Z,71.78
2022-12-18T05:28:31.337Z,71.50
2022-12-18T05:31:01.672Z,71.98
2022-12-18T05:33:32.750Z,72.36
2022-12-18T05:36:05.416Z,71.25
2022-12-18T05:38:35.078Z,71.37
2022-12-18T05:41:04.297Z,72.08
2022-12-18T05:43:34.644Z,70.82
2022-12-18T05:46:07.263Z,70.96
2022-12-18T05:48:35.275Z,70.85
2022-12-18T05:51:09.649Z,71.99
2022-12-18T05:53:38.966Z,71.80
2022-12-18T05:56:09.747Z,72.06
2022-12-18T05:58:38.240Z,71.59
2022-12-18T06:01:12.680Z,71.51
2022-12-18T06:03:40.767Z,70.43
2022-12-18T06:06:25.925Z,71.28
2022-12-18T06:08:55.425Z,72.30
2022-12-18T06:11:25.462Z,72.22
2022-12-18T06:13:59.050Z,73.64
2022-12-18T06:16:28.736Z,72.14
2022-12-18T06:19:04.780Z,71.53
2022-12-18T06:21:33.248Z,71.37
2022-12-18T06:24:01.276Z,71.68
2022-12-18T06:26:28.920Z,72.19
2022-12-18T06:28:56.541Z,72.46
2022-12-18T06:31:24.714Z,71.92
2022-12-18T06:33:52.533Z,71.39
2022-12-18T06:36:21.299Z,71.20
2022-12-18T06:38:48.890Z,70.53
2022-12-18T06:41:22.096Z,70.79
2022-12-18T06:43:50.196Z,71.36
2022-12-18T06:46:17.795Z,70.04
2022-12-18T06:48:49.680Z,70.18
2022-12-18T06:51:22.283Z,70.60
2022-12-18T06:53:49.901Z,70.55
2022-12-18T06:56:17.736Z,70.44
2022-12-18T06:58:45.375Z,68.95
2022-12-18T07:01:14.296Z,67.10
2022-12-18T07:03:43.560Z,65.41
2022-12-18T07:06:16.784Z,64.23
2022-12-18T07:08:45.239Z,62.83
2022-12-18T07:11:13.380Z,62.96
2022-12-18T07:13:41.398Z,65.29
2022-12-18T07:16:18.355Z,66.81
2022-12-18T07:18:49.788Z,67.21
2022-12-18T07:21:19.932Z,68.35
2022-12-18T07:23:49.212Z,69.03
2022-12-18T07:26:19.806Z,69.93
2022-12-18T07:28:48.030Z,69.75
2022-12-18T07:31:18.899Z,69.81
2022-12-18T07:33:47.400Z,70.33
2022-12-18T07:36:15.429Z,70.41
2022-12-18T07:38:43.364Z,70.55
2022-12-18T07:41:13.517Z,70.42
2022-12-18T07:43:42.627Z,69.59
2022-12-18T07:46:11.273Z,70.10
2022-12-18T07:48:45.553Z,70.07
2022-12-18T07:51:18.542Z,65.55
2022-12-18T07:53:46.977Z,65.88
2022-12-18T07:56:27.119Z,60.99
2022-12-18T07:58:55.706Z,57.12
2022-12-18T08:01:23.532Z,54.27
2022-12-18T08:03:52.247Z,54.57
2022-12-18T08:06:22.762Z,53.46
2022-12-18T08:08:56.372Z,51.85
2022-12-18T08:11:25.285Z,55.01
2022-12-18T08:13:53.240Z,54.49
2022-12-18T08:16:22.097Z,51.69
2022-12-18T08:18:50.474Z,49.96
2022-12-18T08:21:25.351Z,46.65
2022-12-18T08:23:54.804Z,52.72
2022-12-18T08:26:22.498Z,49.72
2022-12-18T08:28:51.108Z,49.15
2022-12-18T08:31:20.128Z,47.44
2022-12-18T08:33:53.215Z,42.81
2022-12-18T08:36:22.650Z,42.76
2022-12-18T08:38:50.832Z,42.45
2022-12-18T08:41:21.769Z,39.75
2022-12-18T08:44:07.753Z,37.55
2022-12-18T08:46:39.521Z,38.61
2022-12-18T08:49:09.389Z,34.30
2022-12-18T08:51:37.200Z,38.05
2022-12-18T08:54:06.473Z,34.34
2022-12-18T08:56:35.121Z,37.00
2022-12-18T08:59:03.197Z,34.71
2022-12-18T09:01:31.554Z,33.52
2022-12-18T09:03:59.603Z,32.72
2022-12-18T09:06:27.545Z,31.88
2022-12-18T09:08:55.156Z,33.98
2022-12-18T09:11:27.757Z,34.26
2022-12-18T09:13:56.785Z,32.95
2022-12-18T09:16:31.660Z,32.93
2022-12-18T09:19:00.603Z,31.73
2022-12-18T09:21:31.610Z,32.64
2022-12-18T09:24:00.964Z,31.95
2022-12-18T09:26:28.823Z,30.65
2022-12-18T09:28:56.939Z,31.68
2022-12-18T09:31:25.867Z,32.27
2022-12-18T09:33:56.755Z,31.61
2022-12-18T09:36:24.462Z,32.77
2022-12-18T09:38:54.112Z,34.08
2022-12-18T09:41:27.908Z,36.56
2022-12-18T09:44:01.912Z,37.13
2022-12-18T09:46:41.016Z,39.56
2022-12-18T09:49:14.492Z,44.61
2022-12-18T09:51:58.485Z,42.55
2022-12-18T09:54:51.026Z,37.25
2022-12-18T09:57:23.260Z,35.36
2022-12-18T10:00:20.054Z,33.66
2022-12-18T10:02:48.373Z,31.92
2022-12-18T10:05:44.791Z,32.52
2022-12-18T10:08:30.145Z,29.06
2022-12-18T10:11:04.660Z,30.12
2022-12-18T10:14:04.636Z,30.60
2022-12-18T10:16:47.051Z,28.58
2022-12-18T10:19:20.221Z,28.65
2022-12-18T10:22:00.420Z,28.14
2022-12-18T10:24:32.172Z,27.51
2022-12-18T10:27:15.517Z,27.58
2022-12-18T10:29:45.610Z,28.65
2022-12-18T10:32:20.171Z,28.31
2022-12-18T10:34:49.318Z,30.20
2022-12-18T10:37:20.359Z,29.44
2022-12-18T10:40:08.243Z,28.18
2022-12-18T10:42:35.873Z,26.98
2022-12-18T10:45:16.620Z,28.34
2022-12-18T10:47:47.304Z,28.35
2022-12-18T10:51:09.791Z,27.11
2022-12-18T10:53:30.725Z,27.26
2022-12-18T10:56:07.454Z,27.82
2022-12-18T10:58:40.008Z,29.67
2022-12-18T11:01:21.205Z,27.80
2022-12-18T11:03:51.604Z,28.52
2022-12-18T11:06:22.818Z,28.77
2022-12-18T11:09:00.376Z,28.35
2022-12-18T11:11:28.479Z,26.48
2022-12-18T11:14:16.204Z,25.43
2022-12-18T11:17:03.222Z,26.07
2022-12-18T11:19:39.744Z,26.26
2022-12-18T11:22:29.956Z,24.22
2022-12-18T11:25:30.925Z,24.07
2022-12-18T11:27:57.098Z,24.35
2022-12-18T11:30:36.188Z,24.43
2022-12-18T11:33:14.215Z,24.72
2022-12-18T11:35:50.775Z,22.17
2022-12-18T11:38:27.536Z,22.54
2022-12-18T11:41:06.847Z,22.21
2022-12-18T11:43:51.154Z,21.39
2022-12-18T11:46:40.650Z,20.70
2022-12-18T11:49:21.729Z,21.13
2022-12-18T11:51:51.483Z,19.39
2022-12-18T11:54:19.215Z,21.94
2022-12-18T11:56:54.663Z,21.34
2022-12-18T11:59:35.617Z,21.63
2022-12-18T12:02:24.465Z,22.33
2022-12-18T12:05:34.485Z,19.71
2022-12-18T12:08:16.271Z,20.29
2022-12-18T12:11:03.856Z,21.24
2022-12-18T12:13:31.639Z,20.90
2022-12-18T12:16:10.462Z,20.61
2022-12-18T12:19:16.630Z,19.83
2022-12-18T12:21:54.001Z,20.68
2022-12-18T12:24:43.250Z,20.69
2022-12-18T12:27:35.621Z,20.01
2022-12-18T12:30:20.336Z,21.33
2022-12-18T12:33:16.459Z,21.35
2022-12-18T12:35:47.561Z,20.48
2022-12-18T12:38:24.090Z,20.42
2022-12-18T12:41:03.059Z,20.71
2022-12-18T12:46:37.815Z,21.07
2022-12-18T12:49:19.378Z,21.52
2022-12-18T12:52:11.197Z,22.22
2022-12-18T12:54:39.759Z,22.35
2022-12-18T12:57:10.340Z,21.27
2022-12-18T12:59:47.410Z,20.97
2022-12-18T13:02:34.561Z,21.60
2022-12-18T13:05:34.102Z,21.31
2022-12-18T13:08:08.375Z,22.47
2022-12-18T13:10:37.980Z,23.26
2022-12-18T13:13:13.395Z,23.67
2022-12-18T13:15:46.981Z,23.48
2022-12-18T13:18:23.654Z,22.48
2022-12-18T13:21:03.404Z,24.18
2022-12-18T13:23:40.046Z,23.25
2022-12-18T13:26:10.935Z,24.60
2022-12-18T13:28:48.579Z,25.27
2022-12-18T13:31:31.938Z,26.55
2022-12-18T13:34:29.565Z,25.94
2022-12-18T13:37:32.405Z,26.52
2022-12-18T13:40:00.277Z,25.46
2022-12-18T13:42:49.412Z,26.26
2022-12-18T13:45:38.682Z,27.47
2022-12-18T13:48:17.148Z,29.43
2022-12-18T13:50:50.494Z,32.56
2022-12-18T13:53:25.819Z,34.31
2022-12-18T13:55:56.118Z,35.03
2022-12-18T13:58:24.295Z,39.05
2022-12-18T14:00:52.428Z,39.47
2022-12-18T14:03:28.955Z,40.41
2022-12-18T14:06:09.168Z,42.32
2022-12-18T14:08:43.832Z,46.08
2022-12-18T14:11:22.971Z,48.07
2022-12-18T14:13:51.150Z,47.42
2022-12-18T14:16:19.305Z,49.24
2022-12-18T14:18:59.831Z,49.59
2022-12-18T14:21:40.396Z,51.30
2022-12-18T14:24:21.136Z,52.41
2022-12-18T14:26:50.784Z,52.66
2022-12-18T14:29:31.887Z,51.99
2022-12-18T14:32:16.891Z,55.44
2022-12-18T14:34:50.647Z,56.52
2022-12-18T14:37:22.598Z,57.09
2022-12-18T14:40:19.098Z,58.35
2022-12-18T14:42:46.611Z,58.68
2022-12-18T14:45:43.843Z,60.33
2022-12-18T14:48:23.206Z,61.63
2022-12-18T14:51:04.059Z,62.07
2022-12-18T14:53:41.741Z,63.43
2022-12-18T14:56:25.729Z,63.88
2022-12-18T14:59:05.701Z,63.22
2022-12-18T15:01:38.090Z,64.06
2022-12-18T15:04:24.099Z,64.17
2022-12-18T15:07:10.482Z,63.30
2022-12-18T15:09:39.138Z,65.24
2022-12-18T15:12:33.990Z,66.46
2022-12-18T15:15:02.169Z,67.56
2022-12-18T15:17:30.883Z,68.54
2022-12-18T15:20:04.478Z,68.30
2022-12-18T15:22:36.458Z,68.43
2022-12-18T15:25:30.762Z,68.92
2022-12-18T15:27:58.908Z,70.03
2022-12-18T15:30:27.017Z,69.05
2022-12-18T15:33:24.123Z,69.88
2022-12-18T15:35:59.576Z,71.03
2022-12-18T15:38:27.872Z,70.75
2022-12-18T15:40:56.063Z,71.31
2022-12-18T15:43:34.734Z,72.08
2022-12-18T15:46:07.883Z,71.94
2022-12-18T15:48:43.324Z,71.91
2022-12-18T15:51:30.105Z,73.13
2022-12-18T15:54:01.638Z,73.94
2022-12-18T15:56:47.838Z,73.57
2022-12-18T15:59:18.720Z,75.13
2022-12-18T16:01:49.666Z,75.83
2022-12-18T16:04:21.625Z,75.77
2022-12-18T16:09:38.034Z,75.20
2022-12-18T16:12:07.586Z,77.31
2022-12-18T16:14:35.405Z,77.74
2022-12-18T16:17:06.499Z,77.68
2022-12-18T16:19:34.023Z,77.88
2022-12-18T16:22:05.929Z,78.22
2022-12-18T16:24:37.086Z,78.65
2022-12-18T16:27:04.756Z,78.31
2022-12-18T16:29:32.644Z,78.74
2022-12-18T16:32:01.551Z,77.20
2022-12-18T16:34:34.871Z,76.88
2022-12-18T16:37:06.456Z,77.14
2022-12-18T16:39:35.728Z,77.26
2022-12-18T16:42:15.506Z,78.28
2022-12-18T16:44:43.917Z,77.45
2022-12-18T16:47:14.995Z,77.67
2022-12-18T16:49:45.900Z,77.91
2022-12-18T16:52:14.570Z,77.46
2022-12-18T16:54:42.421Z,77.30
2022-12-18T16:57:13.545Z,78.28
2022-12-18T16:59:41.496Z,79.50
2022-12-18T17:02:23.616Z,79.77
2022-12-18T17:04:54.915Z,79.94
2022-12-18T17:07:24.769Z,80.18
2022-12-18T17:09:54.078Z,80.37
2022-12-18T17:12:22.386Z,80.00
2022-12-18T17:14:50.205Z,79.70
2022-12-18T17:17:21.785Z,79.38
2022-12-18T17:19:52.190Z,79.85
2022-12-18T17:22:23.376Z,81.25
2022-12-18T17:24:50.977Z,80.67
2022-12-18T17:27:19.977Z,80.98
2022-12-18T17:29:48.805Z,80.26
2022-12-18T17:32:17.571Z,80.67
2022-12-18T17:34:45.332Z,80.65
2022-12-18T17:37:13.250Z,80.81
2022-12-18T17:39:42.130Z,80.24
2022-12-18T17:42:14.892Z,80.39
2022-12-18T17:44:44.545Z,81.06
2022-12-18T17:47:14.166Z,81.92
2022-12-18T17:49:42.071Z,81.36
2022-12-18T17:52:10.272Z,80.99
2022-12-18T17:54:39.964Z,81.52
2022-12-18T17:57:08.289Z,81.37
2022-12-18T17:59:36.052Z,81.65
2022-12-18T18:02:04.070Z,81.48
2022-12-18T18:04:32.668Z,81.74
2022-12-18T18:07:00.174Z,81.79
2022-12-18T18:09:27.717Z,81.85
2022-12-18T18:12:15.904Z,81.43
2022-12-18T18:14:45.482Z,81.68
2022-12-18T18:17:14.636Z,81.85
2022-12-18T18:19:44.153Z,81.68
2022-12-18T18:22:20.076Z,81.59
2022-12-18T18:24:47.877Z,81.38
2022-12-18T18:27:15.741Z,81.93
2022-12-18T18:29:43.300Z,81.85
2022-12-18T18:32:13.175Z,81.25
2022-12-18T18:34:41.019Z,79.91
2022-12-18T18:37:09.514Z,79.40
2022-12-18T18:39:37.386Z,79.31
2022-12-18T18:42:05.575Z,79.31
2022-12-18T18:44:33.385Z,79.27
2022-12-18T18:47:01.414Z,78.74
2022-12-18T18:49:31.929Z,78.64
2022-12-18T18:51:59.497Z,78.11
2022-12-18T18:54:27.954Z,78.49
2022-12-18T18:59:47.224Z,78.70
2022-12-18T19:02:17.084Z,78.88
2022-12-18T19:04:46.334Z,78.42
2022-12-18T19:07:29.994Z,78.75
2022-12-18T19:10:04.672Z,78.90
2022-12-18T19:12:52.793Z,78.04
2022-12-18T19:15:22.551Z,78.02
2022-12-18T19:17:50.570Z,79.03
2022-12-18T19:20:19.022Z,77.92
2022-12-18T19:22:52.221Z,78.44
2022-12-18T19:25:30.682Z,79.05
2022-12-18T19:28:18.205Z,78.16
2022-12-18T19:30:58.975Z,78.26
2022-12-18T19:33:45.380Z,78.13
2022-12-18T19:36:20.462Z,78.25
2022-12-18T19:38:50.987Z,78.55
2022-12-18T19:41:19.900Z,78.09
2022-12-18T19:43:49.672Z,78.26
2022-12-18T19:46:21.043Z,78.56
2022-12-18T19:48:49.143Z,78.16
2022-12-18T19:51:22.855Z,77.87
2022-12-18T19:53:57.881Z,78.25
2022-12-18T19:56:29.319Z,78.20
2022-12-18T19:58:57.210Z,78.43
2022-12-18T20:01:26.300Z,78.00
2022-12-18T20:03:55.077Z,78.20
2022-12-18T20:06:47.206Z,78.10
2022-12-18T20:09:16.505Z,78.73
2022-12-18T20:11:44.307Z,78.45
2022-12-18T20:14:13.998Z,78.94
2022-12-18T20:16:42.130Z,79.25
2022-12-18T20:19:12.735Z,78.72
2022-12-18T20:21:41.542Z,79.65
2022-12-18T20:24:09.450Z,79.38
2022-12-18T20:26:37.928Z,79.44
2022-12-18T20:29:05.695Z,78.66
2022-12-18T20:31:35.032Z,78.38
2022-12-18T20:34:04.835Z,78.00
2022-12-18T20:36:35.097Z,78.02
2022-12-18T20:39:06.498Z,78.30
2022-12-18T20:41:38.019Z,77.95
2022-12-18T20:44:21.827Z,77.40
2022-12-18T20:46:53.818Z,78.18
2022-12-18T20:49:21.682Z,78.14
2022-12-18T20:51:57.598Z,78.19
2022-12-18T20:54:27.362Z,78.08
2022-12-18T20:56:56.436Z,77.79
2022-12-18T20:59:25.664Z,78.75
2022-12-18T21:01:56.234Z,79.07
2022-12-18T21:04:24.529Z,78.96
2022-12-18T21:06:57.929Z,78.41
2022-12-18T21:09:37.342Z,78.21
2022-12-18T21:12:40.506Z,77.95
2022-12-18T21:15:28.355Z,78.27
2022-12-18T21:17:56.328Z,77.58
2022-12-18T21:20:23.861Z,77.90
2022-12-18T21:22:51.545Z,77.75
2022-12-18T21:25:21.521Z,77.99
2022-12-18T21:27:49.073Z,77.91
2022-12-18T21:30:17.071Z,77.94
2022-12-18T21:32:46.323Z,77.67
2022-12-18T21:35:14.016Z,78.28
2022-12-18T21:37:41.657Z,79.30
2022-12-18T21:40:10.041Z,78.84
2022-12-18T21:42:56.302Z,78.58
2022-12-18T21:45:23.796Z,77.93
2022-12-18T21:47:51.464Z,78.60
2022-12-18T21:50:19.389Z,77.94
2022-12-18T21:52:47.949Z,78.12
2022-12-18T21:55:15.587Z,77.81
2022-12-18T21:57:43.120Z,77.89
2022-12-18T22:00:19.282Z,76.20
2022-12-18T22:03:15.451Z,74.10
2022-12-18T22:05:36.685Z,73.16
2022-12-18T22:08:04.433Z,73.37
2022-12-18T22:10:32.066Z,72.80
2022-12-18T22:12:59.517Z,74.96
2022-12-18T22:15:27.099Z,76.37
2022-12-18T22:18:00.005Z,77.38
2022-12-18T22:20:31.550Z,78.19
2022-12-18T22:22:59.555Z,77.79
2022-12-18T22:25:34.818Z,79.01
2022-12-18T22:28:22.176Z,74.51
2022-12-18T22:30:49.747Z,73.56
2022-12-18T22:33:20.586Z,73.67
2022-12-18T22:35:48.113Z,73.68
2022-12-18T22:38:19.043Z,73.92
2022-12-18T22:40:46.542Z,73.05
2022-12-18T22:43:14.279Z,72.83
2022-12-18T22:45:42.414Z,72.68
2022-12-18T22:48:09.975Z,72.45
2022-12-18T22:50:37.448Z,73.04
2022-12-18T22:53:07.739Z,72.47
2022-12-18T22:55:37.223Z,71.91
2022-12-18T22:58:04.655Z,71.88
2022-12-18T23:00:32.120Z,71.48
2022-12-18T23:03:00.869Z,71.33
2022-12-18T23:05:30.618Z,71.02
2022-12-18T23:07:59.255Z,71.40
2022-12-18T23:10:27.480Z,70.89
2022-12-18T23:12:55.130Z,70.91
2022-12-18T23:15:27.263Z,70.65
2022-12-18T23:17:57.685Z,71.24
2022-12-18T23:20:27.215Z,74.15
2022-12-18T23:22:54.966Z,76.08
2022-12-18T23:25:22.705Z,76.10
2022-12-18T23:27:50.392Z,76.75
2022-12-18T23:30:18.013Z,76.95
2022-12-18T23:32:45.497Z,77.29
2022-12-18T23:35:12.978Z,74.31
2022-12-18T23:38:00.219Z,73.49
2022-12-18T23:40:29.446Z,73.66
2022-12-18T23:42:57.239Z,73.37
2022-12-18T23:45:24.740Z,72.95
2022-12-18T23:47:52.334Z,72.29
2022-12-18T23:50:19.898Z,71.54
2022-12-18T23:52:52.900Z,72.04
2022-12-18T23:55:20.368Z,71.31
2022-12-18T23:57:47.834Z,71.72
